sensor_id;sensor_type;location;lat;lon;timestamp;P1;durP1;ratioP1;P2;durP2;ratioP2
21245;SDS011;10781;50.928;4.440;2023-05-23T00:02:21;52.00;;;28.33;;
21245;SDS011;10781;50.928;4.440;2023-05-23T00:04:47;60.33;;;28.63;;
21245;SDS011;10781;50.928;4.440;2023-05-23T00:07:13;54.30;;;27.70;;
21245;SDS011;10781;50.928;4.440;2023-05-23T00:09:39;63.03;;;30.30;;
21245;SDS011;10781;50.928;4.440;2023-05-23T00:12:04;65.22;;;31.58;;
21245;SDS011;10781;50.928;4.440;2023-05-23T00:14:31;69.88;;;31.77;;
21245;SDS011;10781;50.928;4.440;2023-05-23T00:16:58;63.38;;;30.15;;
21245;SDS011;10781;50.928;4.440;2023-05-23T00:19:25;61.45;;;28.52;;
21245;SDS011;10781;50.928;4.440;2023-05-23T00:21:50;56.28;;;27.42;;
21245;SDS011;10781;50.928;4.440;2023-05-23T00:24:20;55.03;;;28.80;;
21245;SDS011;10781;50.928;4.440;2023-05-23T00:26:46;57.55;;;29.63;;
21245;SDS011;10781;50.928;4.440;2023-05-23T00:29:11;59.95;;;29.95;;
21245;SDS011;10781;50.928;4.440;2023-05-23T00:31:40;62.65;;;31.98;;
21245;SDS011;10781;50.928;4.440;2023-05-23T00:34:10;54.72;;;28.67;;
21245;SDS011;10781;50.928;4.440;2023-05-23T00:36:39;54.97;;;28.63;;
21245;SDS011;10781;50.928;4.440;2023-05-23T00:39:07;51.50;;;27.23;;
21245;SDS011;10781;50.928;4.440;2023-05-23T00:41:33;56.05;;;27.20;;
21245;SDS011;10781;50.928;4.440;2023-05-23T00:44:00;58.92;;;28.05;;
21245;SDS011;10781;50.928;4.440;2023-05-23T00:46:27;56.05;;;26.60;;
21245;SDS011;10781;50.928;4.440;2023-05-23T00:48:53;56.35;;;27.50;;
21245;SDS011;10781;50.928;4.440;2023-05-23T00:51:19;55.25;;;27.00;;
21245;SDS011;10781;50.928;4.440;2023-05-23T00:53:46;52.80;;;26.38;;
21245;SDS011;10781;50.928;4.440;2023-05-23T00:56:12;53.40;;;25.95;;
21245;SDS011;10781;50.928;4.440;2023-05-23T00:58:38;50.53;;;25.85;;
21245;SDS011;10781;50.928;4.440;2023-05-23T01:01:04;55.65;;;27.00;;
21245;SDS011;10781;50.928;4.440;2023-05-23T01:03:30;54.90;;;26.20;;
21245;SDS011;10781;50.928;4.440;2023-05-23T01:05:56;49.67;;;25.77;;
21245;SDS011;10781;50.928;4.440;2023-05-23T01:08:22;50.13;;;26.48;;
21245;SDS011;10781;50.928;4.440;2023-05-23T01:10:47;46.58;;;24.67;;
21245;SDS011;10781;50.928;4.440;2023-05-23T01:13:29;50.53;;;25.77;;
21245;SDS011;10781;50.928;4.440;2023-05-23T01:16:57;49.72;;;25.98;;
21245;SDS011;10781;50.928;4.440;2023-05-23T01:22:00;49.03;;;25.25;;
21245;SDS011;10781;50.928;4.440;2023-05-23T01:24:35;50.75;;;24.52;;
21245;SDS011;10781;50.928;4.440;2023-05-23T01:30:03;46.03;;;23.08;;
21245;SDS011;10781;50.928;4.440;2023-05-23T01:32:30;43.28;;;23.52;;
21245;SDS011;10781;50.928;4.440;2023-05-23T01:34:56;44.00;;;23.50;;
21245;SDS011;10781;50.928;4.440;2023-05-23T01:37:24;40.45;;;22.05;;
21245;SDS011;10781;50.928;4.440;2023-05-23T01:39:50;38.67;;;21.38;;
21245;SDS011;10781;50.928;4.440;2023-05-23T01:42:16;33.85;;;20.80;;
21245;SDS011;10781;50.928;4.440;2023-05-23T01:44:44;41.90;;;20.88;;
21245;SDS011;10781;50.928;4.440;2023-05-23T01:47:10;34.80;;;20.65;;
21245;SDS011;10781;50.928;4.440;2023-05-23T01:49:37;36.72;;;20.25;;
21245;SDS011;10781;50.928;4.440;2023-05-23T01:52:04;34.25;;;19.35;;
21245;SDS011;10781;50.928;4.440;2023-05-23T01:54:34;35.25;;;18.92;;
21245;SDS011;10781;50.928;4.440;2023-05-23T01:57:01;30.20;;;20.00;;
21245;SDS011;10781;50.928;4.440;2023-05-23T01:59:28;33.40;;;20.05;;
21245;SDS011;10781;50.928;4.440;2023-05-23T02:01:54;35.33;;;19.38;;
21245;SDS011;10781;50.928;4.440;2023-05-23T02:04:20;33.63;;;19.33;;
21245;SDS011;10781;50.928;4.440;2023-05-23T02:06:46;29.15;;;20.25;;
21245;SDS011;10781;50.928;4.440;2023-05-23T02:09:11;32.70;;;20.27;;
21245;SDS011;10781;50.928;4.440;2023-05-23T02:11:37;32.40;;;19.80;;
21245;SDS011;10781;50.928;4.440;2023-05-23T02:14:03;30.33;;;20.23;;
21245;SDS011;10781;50.928;4.440;2023-05-23T02:16:28;32.50;;;20.05;;
21245;SDS011;10781;50.928;4.440;2023-05-23T02:18:54;34.03;;;20.83;;
21245;SDS011;10781;50.928;4.440;2023-05-23T02:21:21;33.50;;;20.83;;
21245;SDS011;10781;50.928;4.440;2023-05-23T02:23:47;36.08;;;19.98;;
21245;SDS011;10781;50.928;4.440;2023-05-23T02:26:13;33.53;;;20.48;;
21245;SDS011;10781;50.928;4.440;2023-05-23T02:28:38;35.17;;;18.98;;
21245;SDS011;10781;50.928;4.440;2023-05-23T02:31:05;29.63;;;18.48;;
21245;SDS011;10781;50.928;4.440;2023-05-23T02:33:30;29.20;;;17.63;;
21245;SDS011;10781;50.928;4.440;2023-05-23T02:35:56;28.48;;;16.30;;
21245;SDS011;10781;50.928;4.440;2023-05-23T02:38:22;28.33;;;16.75;;
21245;SDS011;10781;50.928;4.440;2023-05-23T02:40:47;25.98;;;16.83;;
21245;SDS011;10781;50.928;4.440;2023-05-23T02:43:15;27.20;;;17.38;;
21245;SDS011;10781;50.928;4.440;2023-05-23T02:45:41;26.92;;;15.32;;
21245;SDS011;10781;50.928;4.440;2023-05-23T02:48:06;26.50;;;15.27;;
21245;SDS011;10781;50.928;4.440;2023-05-23T02:50:32;25.88;;;15.52;;
21245;SDS011;10781;50.928;4.440;2023-05-23T02:52:58;28.27;;;15.48;;
21245;SDS011;10781;50.928;4.440;2023-05-23T02:55:23;26.70;;;16.20;;
21245;SDS011;10781;50.928;4.440;2023-05-23T02:57:49;30.40;;;16.40;;
21245;SDS011;10781;50.928;4.440;2023-05-23T03:00:15;31.52;;;16.70;;
21245;SDS011;10781;50.928;4.440;2023-05-23T03:02:41;31.17;;;16.67;;
21245;SDS011;10781;50.928;4.440;2023-05-23T03:05:07;36.60;;;17.55;;
21245;SDS011;10781;50.928;4.440;2023-05-23T03:07:34;33.80;;;18.27;;
21245;SDS011;10781;50.928;4.440;2023-05-23T03:10:00;37.90;;;19.40;;
21245;SDS011;10781;50.928;4.440;2023-05-23T03:12:26;39.20;;;18.25;;
21245;SDS011;10781;50.928;4.440;2023-05-23T03:14:53;37.20;;;18.10;;
21245;SDS011;10781;50.928;4.440;2023-05-23T03:17:18;43.03;;;20.38;;
21245;SDS011;10781;50.928;4.440;2023-05-23T03:19:44;38.95;;;20.75;;
21245;SDS011;10781;50.928;4.440;2023-05-23T03:22:11;37.05;;;21.25;;
21245;SDS011;10781;50.928;4.440;2023-05-23T03:24:37;44.55;;;20.52;;
21245;SDS011;10781;50.928;4.440;2023-05-23T03:27:02;45.83;;;21.75;;
21245;SDS011;10781;50.928;4.440;2023-05-23T03:29:28;41.58;;;22.38;;
21245;SDS011;10781;50.928;4.440;2023-05-23T03:31:54;46.67;;;22.77;;
21245;SDS011;10781;50.928;4.440;2023-05-23T03:34:19;43.20;;;23.70;;
21245;SDS011;10781;50.928;4.440;2023-05-23T03:36:47;39.42;;;24.38;;
21245;SDS011;10781;50.928;4.440;2023-05-23T03:39:13;41.70;;;24.30;;
21245;SDS011;10781;50.928;4.440;2023-05-23T03:41:39;42.85;;;25.40;;
21245;SDS011;10781;50.928;4.440;2023-05-23T03:44:05;34.38;;;23.25;;
21245;SDS011;10781;50.928;4.440;2023-05-23T03:46:30;35.50;;;22.80;;
21245;SDS011;10781;50.928;4.440;2023-05-23T03:48:56;34.20;;;21.60;;
21245;SDS011;10781;50.928;4.440;2023-05-23T03:51:21;31.98;;;21.63;;
21245;SDS011;10781;50.928;4.440;2023-05-23T03:53:48;28.15;;;18.98;;
21245;SDS011;10781;50.928;4.440;2023-05-23T03:56:13;26.58;;;17.48;;
21245;SDS011;10781;50.928;4.440;2023-05-23T03:58:39;26.83;;;16.67;;
21245;SDS011;10781;50.928;4.440;2023-05-23T04:01:05;27.15;;;16.38;;
21245;SDS011;10781;50.928;4.440;2023-05-23T04:03:31;28.50;;;15.20;;
21245;SDS011;10781;50.928;4.440;2023-05-23T04:05:57;23.42;;;13.85;;
21245;SDS011;10781;50.928;4.440;2023-05-23T04:08:24;19.40;;;13.18;;
21245;SDS011;10781;50.928;4.440;2023-05-23T04:10:50;18.45;;;13.35;;
21245;SDS011;10781;50.928;4.440;2023-05-23T04:13:16;19.20;;;12.88;;
21245;SDS011;10781;50.928;4.440;2023-05-23T04:15:42;20.42;;;12.15;;
21245;SDS011;10781;50.928;4.440;2023-05-23T04:18:09;20.05;;;11.00;;
21245;SDS011;10781;50.928;4.440;2023-05-23T04:20:34;16.50;;;11.60;;
21245;SDS011;10781;50.928;4.440;2023-05-23T04:23:00;16.10;;;10.40;;
21245;SDS011;10781;50.928;4.440;2023-05-23T04:25:26;16.70;;;10.45;;
21245;SDS011;10781;50.928;4.440;2023-05-23T04:27:51;15.02;;;10.30;;
21245;SDS011;10781;50.928;4.440;2023-05-23T04:30:18;17.20;;;10.13;;
21245;SDS011;10781;50.928;4.440;2023-05-23T04:32:44;15.77;;;9.93;;
21245;SDS011;10781;50.928;4.440;2023-05-23T04:35:10;12.70;;;9.48;;
21245;SDS011;10781;50.928;4.440;2023-05-23T04:37:36;17.13;;;9.63;;
21245;SDS011;10781;50.928;4.440;2023-05-23T04:40:03;15.35;;;9.55;;
21245;SDS011;10781;50.928;4.440;2023-05-23T04:42:31;13.18;;;8.93;;
21245;SDS011;10781;50.928;4.440;2023-05-23T04:44:57;16.83;;;10.10;;
21245;SDS011;10781;50.928;4.440;2023-05-23T04:47:23;15.15;;;10.02;;
21245;SDS011;10781;50.928;4.440;2023-05-23T04:49:51;15.85;;;10.60;;
21245;SDS011;10781;50.928;4.440;2023-05-23T04:52:18;17.15;;;10.45;;
21245;SDS011;10781;50.928;4.440;2023-05-23T04:54:44;16.58;;;9.95;;
21245;SDS011;10781;50.928;4.440;2023-05-23T04:57:10;19.77;;;11.98;;
21245;SDS011;10781;50.928;4.440;2023-05-23T04:59:37;19.20;;;10.48;;
21245;SDS011;10781;50.928;4.440;2023-05-23T05:02:03;16.88;;;11.43;;
21245;SDS011;10781;50.928;4.440;2023-05-23T05:04:29;20.45;;;13.32;;
21245;SDS011;10781;50.928;4.440;2023-05-23T05:06:55;26.77;;;13.23;;
21245;SDS011;10781;50.928;4.440;2023-05-23T05:09:21;21.77;;;13.05;;
21245;SDS011;10781;50.928;4.440;2023-05-23T05:11:47;21.27;;;12.77;;
21245;SDS011;10781;50.928;4.440;2023-05-23T05:14:13;24.17;;;14.95;;
21245;SDS011;10781;50.928;4.440;2023-05-23T05:16:38;20.38;;;14.65;;
21245;SDS011;10781;50.928;4.440;2023-05-23T05:19:04;28.13;;;13.35;;
21245;SDS011;10781;50.928;4.440;2023-05-23T05:21:30;22.35;;;13.07;;
21245;SDS011;10781;50.928;4.440;2023-05-23T05:23:56;20.52;;;12.65;;
21245;SDS011;10781;50.928;4.440;2023-05-23T05:26:23;21.85;;;12.73;;
21245;SDS011;10781;50.928;4.440;2023-05-23T05:28:50;25.55;;;13.10;;
21245;SDS011;10781;50.928;4.440;2023-05-23T05:31:17;21.45;;;12.85;;
21245;SDS011;10781;50.928;4.440;2023-05-23T05:33:43;22.42;;;12.05;;
21245;SDS011;10781;50.928;4.440;2023-05-23T05:36:09;25.83;;;12.55;;
21245;SDS011;10781;50.928;4.440;2023-05-23T05:38:35;18.27;;;11.23;;
21245;SDS011;10781;50.928;4.440;2023-05-23T05:41:01;24.80;;;11.43;;
21245;SDS011;10781;50.928;4.440;2023-05-23T05:43:26;27.65;;;11.75;;
21245;SDS011;10781;50.928;4.440;2023-05-23T05:45:52;22.17;;;11.63;;
21245;SDS011;10781;50.928;4.440;2023-05-23T05:48:17;24.95;;;11.57;;
21245;SDS011;10781;50.928;4.440;2023-05-23T05:50:43;23.75;;;12.05;;
21245;SDS011;10781;50.928;4.440;2023-05-23T05:53:12;25.85;;;12.02;;
21245;SDS011;10781;50.928;4.440;2023-05-23T05:55:38;20.88;;;10.88;;
21245;SDS011;10781;50.928;4.440;2023-05-23T05:58:03;25.45;;;11.82;;
21245;SDS011;10781;50.928;4.440;2023-05-23T06:00:29;22.33;;;11.45;;
21245;SDS011;10781;50.928;4.440;2023-05-23T06:02:55;26.05;;;10.52;;
21245;SDS011;10781;50.928;4.440;2023-05-23T06:05:24;29.73;;;10.93;;
21245;SDS011;10781;50.928;4.440;2023-05-23T06:07:50;32.67;;;11.77;;
21245;SDS011;10781;50.928;4.440;2023-05-23T06:10:16;31.67;;;11.93;;
21245;SDS011;10781;50.928;4.440;2023-05-23T06:12:42;31.45;;;13.57;;
21245;SDS011;10781;50.928;4.440;2023-05-23T06:15:09;28.65;;;13.20;;
21245;SDS011;10781;50.928;4.440;2023-05-23T06:17:36;27.38;;;13.82;;
21245;SDS011;10781;50.928;4.440;2023-05-23T06:20:02;29.20;;;14.30;;
21245;SDS011;10781;50.928;4.440;2023-05-23T06:22:28;29.17;;;14.02;;
21245;SDS011;10781;50.928;4.440;2023-05-23T06:24:54;26.08;;;13.52;;
21245;SDS011;10781;50.928;4.440;2023-05-23T06:27:20;24.15;;;12.77;;
21245;SDS011;10781;50.928;4.440;2023-05-23T06:29:45;28.23;;;13.25;;
21245;SDS011;10781;50.928;4.440;2023-05-23T06:32:11;26.58;;;12.15;;
21245;SDS011;10781;50.928;4.440;2023-05-23T06:34:37;16.88;;;9.07;;
21245;SDS011;10781;50.928;4.440;2023-05-23T06:37:02;19.67;;;8.57;;
21245;SDS011;10781;50.928;4.440;2023-05-23T06:39:28;17.70;;;7.63;;
21245;SDS011;10781;50.928;4.440;2023-05-23T06:41:54;12.57;;;7.22;;
21245;SDS011;10781;50.928;4.440;2023-05-23T06:44:20;14.85;;;7.07;;
21245;SDS011;10781;50.928;4.440;2023-05-23T06:46:46;11.93;;;6.53;;
21245;SDS011;10781;50.928;4.440;2023-05-23T06:49:12;13.52;;;6.82;;
21245;SDS011;10781;50.928;4.440;2023-05-23T06:51:38;13.68;;;6.32;;
21245;SDS011;10781;50.928;4.440;2023-05-23T06:54:03;12.68;;;5.90;;
21245;SDS011;10781;50.928;4.440;2023-05-23T06:56:29;11.15;;;6.00;;
21245;SDS011;10781;50.928;4.440;2023-05-23T06:58:55;11.23;;;5.78;;
21245;SDS011;10781;50.928;4.440;2023-05-23T07:01:21;11.27;;;5.88;;
21245;SDS011;10781;50.928;4.440;2023-05-23T07:03:46;12.32;;;6.20;;
21245;SDS011;10781;50.928;4.440;2023-05-23T07:06:12;11.30;;;7.60;;
21245;SDS011;10781;50.928;4.440;2023-05-23T07:08:38;15.40;;;8.18;;
21245;SDS011;10781;50.928;4.440;2023-05-23T07:11:04;16.52;;;8.18;;
21245;SDS011;10781;50.928;4.440;2023-05-23T07:13:33;15.20;;;7.50;;
21245;SDS011;10781;50.928;4.440;2023-05-23T07:15:59;15.35;;;8.07;;
21245;SDS011;10781;50.928;4.440;2023-05-23T07:18:24;14.45;;;7.47;;
21245;SDS011;10781;50.928;4.440;2023-05-23T07:20:50;16.25;;;7.10;;
21245;SDS011;10781;50.928;4.440;2023-05-23T07:23:16;15.70;;;7.15;;
21245;SDS011;10781;50.928;4.440;2023-05-23T07:25:41;12.00;;;5.78;;
21245;SDS011;10781;50.928;4.440;2023-05-23T07:28:08;11.70;;;5.30;;
21245;SDS011;10781;50.928;4.440;2023-05-23T07:30:34;17.05;;;5.97;;
21245;SDS011;10781;50.928;4.440;2023-05-23T07:33:00;13.02;;;5.13;;
21245;SDS011;10781;50.928;4.440;2023-05-23T07:35:25;9.73;;;5.15;;
21245;SDS011;10781;50.928;4.440;2023-05-23T07:37:52;10.57;;;5.70;;
21245;SDS011;10781;50.928;4.440;2023-05-23T07:40:18;12.95;;;5.60;;
21245;SDS011;10781;50.928;4.440;2023-05-23T07:42:44;12.02;;;5.95;;
21245;SDS011;10781;50.928;4.440;2023-05-23T07:45:10;14.27;;;5.80;;
21245;SDS011;10781;50.928;4.440;2023-05-23T07:47:36;15.80;;;6.05;;
21245;SDS011;10781;50.928;4.440;2023-05-23T07:50:02;9.90;;;5.25;;
21245;SDS011;10781;50.928;4.440;2023-05-23T07:52:28;12.40;;;6.10;;
21245;SDS011;10781;50.928;4.440;2023-05-23T07:54:55;14.38;;;5.80;;
21245;SDS011;10781;50.928;4.440;2023-05-23T07:57:20;11.82;;;5.97;;
21245;SDS011;10781;50.928;4.440;2023-05-23T07:59:48;20.13;;;7.32;;
21245;SDS011;10781;50.928;4.440;2023-05-23T08:02:15;18.15;;;8.57;;
21245;SDS011;10781;50.928;4.440;2023-05-23T08:04:41;15.70;;;8.02;;
21245;SDS011;10781;50.928;4.440;2023-05-23T08:07:07;18.98;;;7.57;;
21245;SDS011;10781;50.928;4.440;2023-05-23T08:09:33;15.82;;;7.80;;
21245;SDS011;10781;50.928;4.440;2023-05-23T08:11:59;12.05;;;7.07;;
21245;SDS011;10781;50.928;4.440;2023-05-23T08:14:25;17.45;;;7.75;;
21245;SDS011;10781;50.928;4.440;2023-05-23T08:16:51;16.20;;;7.78;;
21245;SDS011;10781;50.928;4.440;2023-05-23T08:19:17;17.02;;;7.95;;
21245;SDS011;10781;50.928;4.440;2023-05-23T08:21:42;16.90;;;7.28;;
21245;SDS011;10781;50.928;4.440;2023-05-23T08:24:08;18.23;;;8.23;;
21245;SDS011;10781;50.928;4.440;2023-05-23T08:26:33;17.65;;;7.75;;
21245;SDS011;10781;50.928;4.440;2023-05-23T08:29:00;14.43;;;6.70;;
21245;SDS011;10781;50.928;4.440;2023-05-23T08:31:27;14.68;;;7.00;;
21245;SDS011;10781;50.928;4.440;2023-05-23T08:33:53;14.07;;;6.50;;
21245;SDS011;10781;50.928;4.440;2023-05-23T08:36:19;13.07;;;6.50;;
21245;SDS011;10781;50.928;4.440;2023-05-23T08:38:44;12.13;;;6.15;;
21245;SDS011;10781;50.928;4.440;2023-05-23T08:41:15;11.40;;;6.07;;
21245;SDS011;10781;50.928;4.440;2023-05-23T08:43:46;10.35;;;5.25;;
21245;SDS011;10781;50.928;4.440;2023-05-23T08:46:13;13.48;;;6.05;;
21245;SDS011;10781;50.928;4.440;2023-05-23T08:48:39;10.68;;;5.10;;
21245;SDS011;10781;50.928;4.440;2023-05-23T08:51:08;12.73;;;5.00;;
21245;SDS011;10781;50.928;4.440;2023-05-23T08:53:36;12.48;;;5.50;;
21245;SDS011;10781;50.928;4.440;2023-05-23T08:56:03;13.98;;;6.30;;
21245;SDS011;10781;50.928;4.440;2023-05-23T08:58:30;14.68;;;6.22;;
21245;SDS011;10781;50.928;4.440;2023-05-23T09:00:58;12.82;;;6.35;;
21245;SDS011;10781;50.928;4.440;2023-05-23T09:03:27;14.43;;;6.55;;
21245;SDS011;10781;50.928;4.440;2023-05-23T09:05:53;12.32;;;6.32;;
21245;SDS011;10781;50.928;4.440;2023-05-23T09:08:20;12.10;;;5.97;;
21245;SDS011;10781;50.928;4.440;2023-05-23T09:10:49;12.82;;;5.68;;
21245;SDS011;10781;50.928;4.440;2023-05-23T09:13:16;13.68;;;5.47;;
21245;SDS011;10781;50.928;4.440;2023-05-23T09:16:00;11.02;;;6.40;;
21245;SDS011;10781;50.928;4.440;2023-05-23T09:18:26;15.88;;;6.38;;
21245;SDS011;10781;50.928;4.440;2023-05-23T09:20:56;8.88;;;4.63;;
21245;SDS011;10781;50.928;4.440;2023-05-23T09:23:22;7.95;;;4.05;;
21245;SDS011;10781;50.928;4.440;2023-05-23T09:25:48;7.65;;;3.95;;
21245;SDS011;10781;50.928;4.440;2023-05-23T09:28:14;10.57;;;3.60;;
21245;SDS011;10781;50.928;4.440;2023-05-23T09:30:40;8.73;;;3.78;;
21245;SDS011;10781;50.928;4.440;2023-05-23T09:33:05;6.88;;;3.83;;
21245;SDS011;10781;50.928;4.440;2023-05-23T09:35:31;8.10;;;4.03;;
21245;SDS011;10781;50.928;4.440;2023-05-23T09:37:57;11.98;;;4.50;;
21245;SDS011;10781;50.928;4.440;2023-05-23T09:40:27;12.50;;;4.88;;
21245;SDS011;10781;50.928;4.440;2023-05-23T09:42:54;10.40;;;4.75;;
21245;SDS011;10781;50.928;4.440;2023-05-23T09:45:28;10.98;;;4.85;;
21245;SDS011;10781;50.928;4.440;2023-05-23T09:47:55;10.73;;;5.18;;
21245;SDS011;10781;50.928;4.440;2023-05-23T09:50:20;12.43;;;5.22;;
21245;SDS011;10781;50.928;4.440;2023-05-23T09:52:47;13.52;;;5.07;;
21245;SDS011;10781;50.928;4.440;2023-05-23T09:55:13;10.23;;;4.40;;
21245;SDS011;10781;50.928;4.440;2023-05-23T09:57:40;8.68;;;4.20;;
21245;SDS011;10781;50.928;4.440;2023-05-23T10:00:07;9.00;;;3.85;;
21245;SDS011;10781;50.928;4.440;2023-05-23T10:05:47;7.72;;;3.97;;
21245;SDS011;10781;50.928;4.440;2023-05-23T10:08:28;6.93;;;3.90;;
21245;SDS011;10781;50.928;4.440;2023-05-23T10:13:37;10.23;;;4.20;;
21245;SDS011;10781;50.928;4.440;2023-05-23T10:18:57;8.95;;;3.80;;
21245;SDS011;10781;50.928;4.440;2023-05-23T10:21:32;9.07;;;3.53;;
21245;SDS011;10781;50.928;4.440;2023-05-23T10:24:03;8.20;;;3.75;;
21245;SDS011;10781;50.928;4.440;2023-05-23T10:26:29;7.32;;;3.40;;
21245;SDS011;10781;50.928;4.440;2023-05-23T10:28:56;8.50;;;3.50;;
21245;SDS011;10781;50.928;4.440;2023-05-23T10:31:22;6.60;;;3.05;;
21245;SDS011;10781;50.928;4.440;2023-05-23T10:33:52;6.30;;;2.72;;
21245;SDS011;10781;50.928;4.440;2023-05-23T10:36:30;6.50;;;2.75;;
21245;SDS011;10781;50.928;4.440;2023-05-23T10:39:12;4.88;;;2.50;;
21245;SDS011;10781;50.928;4.440;2023-05-23T10:41:45;6.53;;;2.30;;
21245;SDS011;10781;50.928;4.440;2023-05-23T10:44:26;5.60;;;2.20;;
21245;SDS011;10781;50.928;4.440;2023-05-23T10:46:58;7.22;;;2.35;;
21245;SDS011;10781;50.928;4.440;2023-05-23T10:49:44;4.90;;;2.40;;
21245;SDS011;10781;50.928;4.440;2023-05-23T10:52:15;5.03;;;2.40;;
21245;SDS011;10781;50.928;4.440;2023-05-23T10:57:18;4.70;;;1.95;;
21245;SDS011;10781;50.928;4.440;2023-05-23T10:59:45;9.27;;;2.38;;
21245;SDS011;10781;50.928;4.440;2023-05-23T11:02:12;6.15;;;2.08;;
21245;SDS011;10781;50.928;4.440;2023-05-23T11:04:41;4.97;;;2.33;;
21245;SDS011;10781;50.928;4.440;2023-05-23T11:10:09;9.52;;;3.17;;
21245;SDS011;10781;50.928;4.440;2023-05-23T11:12:39;9.48;;;3.40;;
21245;SDS011;10781;50.928;4.440;2023-05-23T11:15:27;5.25;;;2.80;;
21245;SDS011;10781;50.928;4.440;2023-05-23T11:17:52;7.45;;;3.10;;
21245;SDS011;10781;50.928;4.440;2023-05-23T11:20:21;10.73;;;3.10;;
21245;SDS011;10781;50.928;4.440;2023-05-23T11:22:54;8.98;;;3.17;;
21245;SDS011;10781;50.928;4.440;2023-05-23T11:25:42;10.27;;;3.00;;
21245;SDS011;10781;50.928;4.440;2023-05-23T11:28:11;6.93;;;3.03;;
21245;SDS011;10781;50.928;4.440;2023-05-23T11:30:37;7.85;;;2.85;;
21245;SDS011;10781;50.928;4.440;2023-05-23T11:33:07;12.38;;;3.05;;
21245;SDS011;10781;50.928;4.440;2023-05-23T11:35:41;10.30;;;2.85;;
21245;SDS011;10781;50.928;4.440;2023-05-23T11:38:09;12.02;;;2.95;;
21245;SDS011;10781;50.928;4.440;2023-05-23T11:43:05;12.30;;;2.90;;
21245;SDS011;10781;50.928;4.440;2023-05-23T11:45:38;10.57;;;2.90;;
21245;SDS011;10781;50.928;4.440;2023-05-23T11:48:09;9.80;;;2.85;;
21245;SDS011;10781;50.928;4.440;2023-05-23T11:50:49;11.05;;;5.75;;
21245;SDS011;10781;50.928;4.440;2023-05-23T11:53:19;10.23;;;3.53;;
21245;SDS011;10781;50.928;4.440;2023-05-23T11:55:47;8.38;;;2.60;;
21245;SDS011;10781;50.928;4.440;2023-05-23T11:58:57;13.07;;;5.90;;
21245;SDS011;10781;50.928;4.440;2023-05-23T12:01:16;7.47;;;2.60;;
21245;SDS011;10781;50.928;4.440;2023-05-23T12:03:48;9.60;;;2.92;;
21245;SDS011;10781;50.928;4.440;2023-05-23T12:06:16;10.90;;;2.95;;
21245;SDS011;10781;50.928;4.440;2023-05-23T12:08:43;8.25;;;2.90;;
21245;SDS011;10781;50.928;4.440;2023-05-23T12:11:08;10.63;;;2.80;;
21245;SDS011;10781;50.928;4.440;2023-05-23T12:13:35;6.82;;;2.50;;
21245;SDS011;10781;50.928;4.440;2023-05-23T12:16:01;12.15;;;2.88;;
21245;SDS011;10781;50.928;4.440;2023-05-23T12:18:31;24.25;;;16.88;;
21245;SDS011;10781;50.928;4.440;2023-05-23T12:21:00;11.18;;;3.47;;
21245;SDS011;10781;50.928;4.440;2023-05-23T12:23:27;16.50;;;10.75;;
21245;SDS011;10781;50.928;4.440;2023-05-23T12:25:54;9.10;;;2.90;;
21245;SDS011;10781;50.928;4.440;2023-05-23T12:28:21;10.27;;;3.17;;
21245;SDS011;10781;50.928;4.440;2023-05-23T12:31:07;11.60;;;2.97;;
21245;SDS011;10781;50.928;4.440;2023-05-23T12:33:37;13.35;;;2.90;;
21245;SDS011;10781;50.928;4.440;2023-05-23T12:36:05;7.95;;;2.78;;
21245;SDS011;10781;50.928;4.440;2023-05-23T12:38:34;17.08;;;8.63;;
21245;SDS011;10781;50.928;4.440;2023-05-23T12:41:14;15.65;;;3.78;;
21245;SDS011;10781;50.928;4.440;2023-05-23T12:43:50;9.73;;;3.38;;
21245;SDS011;10781;50.928;4.440;2023-05-23T12:46:17;9.25;;;2.75;;
21245;SDS011;10781;50.928;4.440;2023-05-23T12:48:44;11.13;;;3.22;;
21245;SDS011;10781;50.928;4.440;2023-05-23T12:51:11;9.48;;;2.97;;
21245;SDS011;10781;50.928;4.440;2023-05-23T12:53:37;10.27;;;3.25;;
21245;SDS011;10781;50.928;4.440;2023-05-23T12:56:03;10.93;;;3.45;;
21245;SDS011;10781;50.928;4.440;2023-05-23T12:58:29;12.68;;;2.90;;
21245;SDS011;10781;50.928;4.440;2023-05-23T13:00:55;11.10;;;3.22;;
21245;SDS011;10781;50.928;4.440;2023-05-23T13:03:20;9.65;;;3.20;;
21245;SDS011;10781;50.928;4.440;2023-05-23T13:05:46;11.45;;;3.30;;
21245;SDS011;10781;50.928;4.440;2023-05-23T13:08:12;12.10;;;3.38;;
21245;SDS011;10781;50.928;4.440;2023-05-23T13:10:37;10.10;;;3.67;;
21245;SDS011;10781;50.928;4.440;2023-05-23T13:13:03;14.70;;;3.78;;
21245;SDS011;10781;50.928;4.440;2023-05-23T13:15:29;11.00;;;3.15;;
21245;SDS011;10781;50.928;4.440;2023-05-23T13:17:55;12.43;;;3.65;;
21245;SDS011;10781;50.928;4.440;2023-05-23T13:20:21;11.32;;;3.60;;
21245;SDS011;10781;50.928;4.440;2023-05-23T13:22:47;6.50;;;2.95;;
21245;SDS011;10781;50.928;4.440;2023-05-23T13:25:13;12.88;;;2.92;;
21245;SDS011;10781;50.928;4.440;2023-05-23T13:27:38;11.00;;;3.15;;
21245;SDS011;10781;50.928;4.440;2023-05-23T13:30:04;9.07;;;3.22;;
21245;SDS011;10781;50.928;4.440;2023-05-23T13:32:30;7.88;;;3.22;;
21245;SDS011;10781;50.928;4.440;2023-05-23T13:34:56;8.38;;;2.90;;
21245;SDS011;10781;50.928;4.440;2023-05-23T13:37:22;10.00;;;3.15;;
21245;SDS011;10781;50.928;4.440;2023-05-23T13:39:47;10.45;;;3.20;;
21245;SDS011;10781;50.928;4.440;2023-05-23T13:42:13;10.10;;;3.05;;
21245;SDS011;10781;50.928;4.440;2023-05-23T13:44:39;11.65;;;3.30;;
21245;SDS011;10781;50.928;4.440;2023-05-23T13:47:13;8.45;;;2.80;;
21245;SDS011;10781;50.928;4.440;2023-05-23T13:49:40;9.60;;;2.80;;
21245;SDS011;10781;50.928;4.440;2023-05-23T13:52:07;10.13;;;3.28;;
21245;SDS011;10781;50.928;4.440;2023-05-23T13:54:32;15.07;;;2.95;;
21245;SDS011;10781;50.928;4.440;2023-05-23T13:56:59;13.98;;;3.17;;
21245;SDS011;10781;50.928;4.440;2023-05-23T13:59:25;12.43;;;3.35;;
21245;SDS011;10781;50.928;4.440;2023-05-23T14:01:51;10.07;;;2.92;;
21245;SDS011;10781;50.928;4.440;2023-05-23T14:04:17;10.90;;;3.28;;
21245;SDS011;10781;50.928;4.440;2023-05-23T14:06:43;10.82;;;3.80;;
21245;SDS011;10781;50.928;4.440;2023-05-23T14:09:08;13.52;;;5.72;;
21245;SDS011;10781;50.928;4.440;2023-05-23T14:11:34;12.85;;;3.35;;
21245;SDS011;10781;50.928;4.440;2023-05-23T14:14:00;7.60;;;2.58;;
21245;SDS011;10781;50.928;4.440;2023-05-23T14:16:25;10.55;;;3.03;;
21245;SDS011;10781;50.928;4.440;2023-05-23T14:18:51;11.38;;;3.20;;
21245;SDS011;10781;50.928;4.440;2023-05-23T14:21:16;16.65;;;3.28;;
21245;SDS011;10781;50.928;4.440;2023-05-23T14:23:42;8.32;;;3.03;;
21245;SDS011;10781;50.928;4.440;2023-05-23T14:26:08;8.50;;;3.00;;
21245;SDS011;10781;50.928;4.440;2023-05-23T14:28:34;10.40;;;3.00;;
21245;SDS011;10781;50.928;4.440;2023-05-23T14:30:59;14.52;;;3.53;;
21245;SDS011;10781;50.928;4.440;2023-05-23T14:33:25;9.68;;;2.85;;
21245;SDS011;10781;50.928;4.440;2023-05-23T14:35:51;10.88;;;4.20;;
21245;SDS011;10781;50.928;4.440;2023-05-23T14:38:17;11.88;;;3.20;;
21245;SDS011;10781;50.928;4.440;2023-05-23T14:40:43;13.43;;;3.25;;
21245;SDS011;10781;50.928;4.440;2023-05-23T14:43:09;12.15;;;2.95;;
21245;SDS011;10781;50.928;4.440;2023-05-23T14:45:35;10.82;;;2.80;;
21245;SDS011;10781;50.928;4.440;2023-05-23T14:48:01;9.35;;;2.85;;
21245;SDS011;10781;50.928;4.440;2023-05-23T14:50:26;10.52;;;3.03;;
21245;SDS011;10781;50.928;4.440;2023-05-23T14:52:52;12.32;;;2.83;;
21245;SDS011;10781;50.928;4.440;2023-05-23T14:55:18;15.30;;;3.15;;